CN-0080 weather

Suixi Air Base
Guangdong Province, China

Public forecast

Using degrees Celsius for public forecast. Weather courtesy of forecast.io.

Closest aviation weather report (METAR) to Suixi Air Base

Report is more than 6 hours old.

Closest report is Zhanjiang Airport, 14.0 nm (26.0 km) SE. Retrieved 2018/07/20 13:00 UTC (2 years ago):

ZGZJ 201300Z VRB01MPS 9999 FEW012 27/26 Q1004 NOSIG

Closest aviation forecast (TAF) to Suixi Air Base

Closest forecast is Haikou Meilan International Airport, 88.9 nm (164.7 km) S. Retrieved 2020-06-01 00:03 UTC (5 hours ago):

TAF ZJHK 312106Z 0100/0124 18004MPS 9999 SCT020 TX35/0107Z TN26/0121Z TEMPO 0106/0112 27005MPS TSRA SCT020 FEW026CB